createdAt,value
2023-05-05T00:01:09.127Z,22.20
2023-05-05T00:03:38.891Z,22.20
2023-05-05T00:06:08.132Z,22.20
2023-05-05T00:08:36.121Z,22.20
2023-05-05T00:11:04.132Z,22.20
2023-05-05T00:13:33.068Z,22.10
2023-05-05T00:16:01.182Z,22.10
2023-05-05T00:18:29.643Z,22.10
2023-05-05T00:20:59.837Z,22.00
2023-05-05T00:23:27.837Z,22.00
2023-05-05T00:25:56.528Z,22.00
2023-05-05T00:28:25.031Z,22.00
2023-05-05T00:30:53.203Z,21.90
2023-05-05T00:33:21.343Z,21.90
2023-05-05T00:35:49.297Z,21.90
2023-05-05T00:38:18.767Z,21.90
2023-05-05T00:40:46.841Z,21.80
2023-05-05T00:43:14.855Z,21.80
2023-05-05T00:45:48.200Z,21.70
2023-05-05T00:48:17.009Z,21.70
2023-05-05T00:50:45.583Z,21.70
2023-05-05T00:53:13.667Z,21.70
2023-05-05T00:55:43.178Z,21.70
2023-05-05T00:58:11.225Z,21.70
2023-05-05T01:00:39.489Z,21.70
2023-05-05T01:03:09.254Z,21.60
2023-05-05T01:05:54.527Z,21.60
2023-05-05T01:08:30.904Z,21.60
2023-05-05T01:11:03.255Z,21.60
2023-05-05T01:13:38.266Z,21.50
2023-05-05T01:16:09.562Z,21.50
2023-05-05T01:18:40.941Z,21.50
2023-05-05T01:21:13.832Z,21.40
2023-05-05T01:24:12.452Z,21.40
2023-05-05T01:26:51.846Z,21.40
2023-05-05T01:29:39.614Z,21.40
2023-05-05T01:32:10.665Z,21.30
2023-05-05T01:34:42.100Z,21.30
2023-05-05T01:37:12.857Z,21.30
2023-05-05T01:39:41.244Z,21.30
2023-05-05T01:42:10.304Z,21.30
2023-05-05T01:44:38.969Z,21.20
2023-05-05T01:47:07.085Z,21.20
2023-05-05T01:49:37.100Z,21.20
2023-05-05T01:52:06.038Z,21.20
2023-05-05T01:54:34.565Z,21.20
2023-05-05T01:57:03.376Z,21.20
2023-05-05T01:59:31.721Z,21.20
2023-05-05T02:02:00.268Z,21.10
2023-05-05T02:04:28.498Z,21.10
2023-05-05T02:06:58.014Z,21.10
2023-05-05T02:09:26.215Z,21.10
2023-05-05T02:11:54.219Z,21.10
2023-05-05T02:14:22.688Z,21.00
2023-05-05T02:16:50.948Z,21.00
2023-05-05T02:19:18.897Z,21.00
2023-05-05T02:21:47.002Z,21.00
2023-05-05T02:24:16.598Z,21.00
2023-05-05T02:26:44.652Z,21.00
2023-05-05T02:29:16.688Z,20.90
2023-05-05T02:31:46.952Z,20.90
2023-05-05T02:34:15.082Z,20.90
2023-05-05T02:36:43.304Z,20.80
2023-05-05T02:39:13.995Z,20.80
2023-05-05T02:41:44.044Z,20.80
2023-05-05T02:44:12.155Z,20.80
2023-05-05T02:46:40.239Z,20.80
2023-05-05T02:49:08.378Z,20.80
2023-05-05T02:51:37.444Z,20.70
2023-05-05T02:54:05.574Z,20.70
2023-05-05T02:56:36.589Z,20.70
2023-05-05T02:59:17.137Z,20.70
2023-05-05T03:01:52.560Z,20.70
2023-05-05T03:04:24.559Z,20.70
2023-05-05T03:06:54.179Z,20.60
2023-05-05T03:09:24.527Z,20.60
2023-05-05T03:11:55.524Z,20.60
2023-05-05T03:14:24.922Z,20.60
2023-05-05T03:16:52.934Z,20.60
2023-05-05T03:19:21.773Z,20.60
2023-05-05T03:21:49.923Z,20.50
2023-05-05T03:24:19.261Z,20.50
2023-05-05T03:26:48.058Z,20.50
2023-05-05T03:29:16.221Z,20.40
2023-05-05T03:31:46.250Z,20.40
2023-05-05T03:34:14.277Z,20.40
2023-05-05T03:36:42.270Z,20.40
2023-05-05T03:39:10.818Z,20.40
2023-05-05T03:41:39.265Z,20.40
2023-05-05T03:44:07.420Z,20.30
2023-05-05T03:46:36.410Z,20.30
2023-05-05T03:49:05.950Z,20.30
2023-05-05T03:51:34.302Z,20.30
2023-05-05T03:54:02.269Z,20.30
2023-05-05T03:56:30.321Z,20.30
2023-05-05T03:58:58.356Z,20.30
2023-05-05T04:01:26.342Z,20.30
2023-05-05T04:03:54.491Z,20.30
2023-05-05T04:06:24.328Z,20.30
2023-05-05T04:08:55.125Z,20.30
2023-05-05T04:11:23.236Z,20.30
2023-05-05T04:13:51.287Z,20.30
2023-05-05T04:16:19.925Z,20.30
2023-05-05T04:18:48.116Z,20.30
2023-05-05T04:21:16.170Z,20.30
2023-05-05T04:23:45.565Z,20.30
2023-05-05T04:26:13.607Z,20.20
2023-05-05T04:28:42.039Z,20.30
2023-05-05T04:31:10.707Z,20.30
2023-05-05T04:33:41.650Z,20.30
2023-05-05T04:36:10.183Z,20.30
2023-05-05T04:38:38.164Z,20.30
2023-05-05T04:41:07.890Z,20.30
2023-05-05T04:43:36.340Z,20.20
2023-05-05T04:46:04.445Z,20.30
2023-05-05T04:48:32.427Z,20.30
2023-05-05T04:51:04.716Z,20.30
2023-05-05T04:53:32.965Z,20.30
2023-05-05T04:56:01.514Z,20.30
2023-05-05T04:58:31.131Z,20.20
2023-05-05T05:00:59.314Z,20.20
2023-05-05T05:03:27.545Z,20.20
2023-05-05T05:05:55.773Z,20.20
2023-05-05T05:08:24.117Z,20.20
2023-05-05T05:10:55.148Z,20.20
2023-05-05T05:13:23.280Z,20.20
2023-05-05T05:15:52.732Z,20.20
2023-05-05T05:18:20.810Z,20.20
2023-05-05T05:20:48.854Z,20.30
2023-05-05T05:23:16.894Z,20.30
2023-05-05T05:25:44.887Z,20.40
2023-05-05T05:28:12.959Z,20.40
2023-05-05T05:30:43.708Z,20.40
2023-05-05T05:33:13.289Z,20.50
2023-05-05T05:35:41.849Z,20.50
2023-05-05T05:38:09.891Z,20.60
2023-05-05T05:40:38.604Z,20.60
2023-05-05T05:43:06.680Z,20.70
2023-05-05T05:45:35.517Z,20.70
2023-05-05T05:48:03.559Z,20.70
2023-05-05T05:50:33.216Z,20.60
2023-05-05T05:53:01.634Z,20.70
2023-05-05T05:55:29.804Z,20.70
2023-05-05T05:58:00.724Z,20.60
2023-05-05T06:00:28.760Z,20.60
2023-05-05T06:02:56.933Z,20.60
2023-05-05T06:05:25.322Z,20.60
2023-05-05T06:07:54.655Z,20.60
2023-05-05T06:10:27.212Z,20.60
2023-05-05T06:12:55.815Z,20.60
2023-05-05T06:15:24.276Z,20.60
2023-05-05T06:17:52.243Z,20.60
2023-05-05T06:20:20.401Z,20.50
2023-05-05T06:22:48.363Z,20.50
2023-05-05T06:25:18.711Z,20.60
2023-05-05T06:27:46.777Z,20.50
2023-05-05T06:30:15.821Z,20.50
2023-05-05T06:32:43.824Z,20.50
2023-05-05T06:35:12.209Z,20.50
2023-05-05T06:37:40.465Z,20.50
2023-05-05T06:40:10.953Z,20.50
2023-05-05T06:42:41.577Z,20.50
2023-05-05T06:45:10.349Z,20.50
2023-05-05T06:47:40.417Z,20.50
2023-05-05T06:50:10.267Z,20.50
2023-05-05T06:52:38.517Z,20.50
2023-05-05T06:55:07.286Z,20.50
2023-05-05T06:57:35.306Z,20.50
2023-05-05T07:00:09.774Z,20.50
2023-05-05T07:02:38.193Z,20.50
2023-05-05T07:05:06.998Z,20.40
2023-05-05T07:07:35.084Z,20.40
2023-05-05T07:10:03.519Z,20.40
2023-05-05T07:12:32.024Z,20.40
2023-05-05T07:15:04.850Z,20.40
2023-05-05T07:17:39.019Z,20.50
2023-05-05T07:20:08.413Z,20.50
2023-05-05T07:22:36.865Z,20.50
2023-05-05T07:25:05.531Z,20.60
2023-05-05T07:27:33.754Z,20.70
2023-05-05T07:30:02.357Z,20.70
2023-05-05T07:32:32.290Z,20.80
2023-05-05T07:35:01.892Z,20.90
2023-05-05T07:37:29.912Z,21.00
2023-05-05T07:39:58.512Z,21.00
2023-05-05T07:42:29.511Z,21.00
2023-05-05T07:44:57.645Z,21.00
2023-05-05T07:47:29.330Z,21.00
2023-05-05T07:50:00.044Z,20.90
2023-05-05T07:52:44.089Z,20.00
2023-05-05T07:55:16.095Z,19.80
2023-05-05T07:57:44.140Z,19.60
2023-05-05T08:00:14.537Z,19.30
2023-05-05T08:02:44.032Z,19.50
2023-05-05T08:05:13.161Z,19.80
2023-05-05T08:07:42.809Z,20.10
2023-05-05T08:10:11.809Z,20.30
2023-05-05T08:12:43.181Z,20.40
2023-05-05T08:15:13.977Z,20.50
2023-05-05T08:17:47.043Z,20.60
2023-05-05T08:20:15.381Z,20.60
2023-05-05T08:22:45.236Z,20.70
2023-05-05T08:25:13.579Z,20.80
2023-05-05T08:27:42.097Z,20.80
2023-05-05T08:30:10.849Z,20.80
2023-05-05T08:32:39.312Z,20.90
2023-05-05T08:35:08.285Z,21.00
2023-05-05T08:37:36.751Z,21.10
2023-05-05T08:40:07.016Z,21.20
2023-05-05T08:42:38.593Z,21.20
2023-05-05T08:45:08.273Z,21.30
2023-05-05T08:47:38.427Z,21.30
2023-05-05T08:50:07.339Z,21.40
2023-05-05T08:52:40.540Z,21.50
2023-05-05T08:55:14.933Z,21.50
2023-05-05T08:57:45.411Z,21.60
2023-05-05T09:00:14.350Z,21.60
2023-05-05T09:02:42.893Z,21.70
2023-05-05T09:05:11.368Z,21.80
2023-05-05T09:07:42.532Z,21.90
2023-05-05T09:10:12.920Z,21.70
2023-05-05T09:12:41.703Z,22.00
2023-05-05T09:15:11.015Z,22.50
2023-05-05T09:17:39.271Z,22.90
2023-05-05T09:20:08.495Z,23.40
2023-05-05T09:22:37.758Z,23.70
2023-05-05T09:25:06.691Z,24.00
2023-05-05T09:27:38.872Z,24.30
2023-05-05T09:30:07.820Z,24.50
2023-05-05T09:32:49.186Z,24.80
2023-05-05T09:35:17.704Z,25.00
2023-05-05T09:37:46.485Z,25.20
2023-05-05T09:40:18.380Z,25.20
2023-05-05T09:43:03.382Z,25.20
2023-05-05T09:45:33.814Z,25.30
2023-05-05T09:48:02.026Z,25.30
2023-05-05T09:50:33.033Z,25.40
2023-05-05T09:53:02.210Z,25.60
2023-05-05T09:55:31.376Z,25.70
2023-05-05T09:58:15.928Z,25.80
2023-05-05T10:00:47.619Z,25.90
2023-05-05T10:03:17.059Z,25.90
2023-05-05T10:05:52.025Z,26.00
2023-05-05T10:08:20.974Z,26.10
2023-05-05T10:10:51.817Z,26.30
2023-05-05T10:13:22.305Z,26.40
2023-05-05T10:15:52.102Z,26.50
2023-05-05T10:18:24.352Z,26.60
2023-05-05T10:20:58.602Z,26.70
2023-05-05T10:23:30.126Z,26.90
2023-05-05T10:26:02.164Z,27.00
2023-05-05T10:28:36.062Z,27.10
2023-05-05T10:31:10.100Z,27.30
2023-05-05T10:33:51.316Z,27.40
2023-05-05T10:36:19.405Z,27.50
2023-05-05T10:38:47.662Z,27.60
2023-05-05T10:41:16.576Z,27.70
2023-05-05T10:43:45.995Z,27.80
2023-05-05T10:46:14.575Z,28.00
2023-05-05T10:48:47.172Z,28.10
2023-05-05T10:51:38.815Z,28.30
2023-05-05T10:54:10.477Z,28.30
2023-05-05T10:56:42.156Z,28.50
2023-05-05T10:59:42.790Z,28.60
2023-05-05T11:02:24.298Z,28.70
2023-05-05T11:05:15.384Z,28.80
2023-05-05T11:07:44.172Z,28.90
2023-05-05T11:10:13.248Z,29.00
2023-05-05T11:13:23.831Z,29.20
2023-05-05T11:15:54.520Z,30.10
2023-05-05T11:18:34.386Z,31.30
2023-05-05T11:21:20.713Z,32.40
2023-05-05T11:23:56.361Z,33.40
2023-05-05T11:26:52.402Z,34.40
2023-05-05T11:29:26.307Z,35.10
2023-05-05T11:32:15.799Z,35.90
2023-05-05T11:34:50.085Z,36.50
2023-05-05T11:37:18.151Z,37.30
2023-05-05T11:39:53.011Z,37.80
2023-05-05T11:42:25.533Z,38.20
2023-05-05T11:44:59.176Z,38.60
2023-05-05T11:47:33.276Z,39.00
2023-05-05T11:50:18.752Z,39.40
2023-05-05T11:52:46.706Z,39.50
2023-05-05T11:55:16.575Z,39.90
2023-05-05T11:57:44.610Z,40.00
2023-05-05T12:00:13.796Z,40.20
2023-05-05T12:02:44.361Z,40.40
2023-05-05T12:05:19.457Z,40.60
2023-05-05T12:07:47.882Z,40.70
2023-05-05T12:10:23.585Z,40.80
2023-05-05T12:12:55.386Z,40.90
2023-05-05T12:15:32.138Z,41.00
2023-05-05T12:18:03.343Z,41.00
2023-05-05T12:20:33.541Z,41.10
2023-05-05T12:23:03.189Z,41.00
2023-05-05T12:25:39.215Z,41.10
2023-05-05T12:28:08.586Z,41.00
2023-05-05T12:30:37.419Z,40.70
2023-05-05T12:33:07.689Z,40.10
2023-05-05T12:35:38.814Z,39.80
2023-05-05T12:38:07.454Z,39.30
2023-05-05T12:40:45.796Z,38.80
2023-05-05T12:43:30.249Z,38.00
2023-05-05T12:46:05.748Z,36.90
2023-05-05T12:48:36.098Z,35.80
2023-05-05T12:51:17.525Z,34.80
2023-05-05T12:53:45.861Z,33.70
2023-05-05T12:56:34.926Z,33.10
2023-05-05T12:59:03.468Z,32.40
2023-05-05T13:01:31.869Z,32.40
2023-05-05T13:04:08.880Z,32.20
2023-05-05T13:06:39.615Z,31.90
2023-05-05T13:09:09.500Z,31.60
2023-05-05T13:11:38.361Z,31.60
2023-05-05T13:14:07.118Z,31.40
2023-05-05T13:16:41.234Z,31.20
2023-05-05T13:19:11.001Z,30.80
2023-05-05T13:21:39.447Z,30.60
2023-05-05T13:24:25.421Z,30.50
2023-05-05T13:26:56.576Z,30.20
2023-05-05T13:29:29.557Z,29.90
2023-05-05T13:31:59.352Z,29.70
2023-05-05T13:34:29.001Z,29.40
2023-05-05T13:36:57.261Z,29.20
2023-05-05T13:39:25.788Z,29.00
2023-05-05T13:41:54.052Z,28.80
2023-05-05T13:44:22.510Z,28.80
2023-05-05T13:46:50.698Z,28.70
2023-05-05T13:49:20.480Z,28.60
2023-05-05T13:51:50.076Z,28.50
2023-05-05T13:54:18.201Z,28.50
2023-05-05T13:56:46.535Z,28.40
2023-05-05T13:59:14.626Z,28.30
2023-05-05T14:01:43.228Z,28.30
2023-05-05T14:04:11.341Z,28.20
2023-05-05T14:06:39.523Z,28.10
2023-05-05T14:09:09.146Z,28.10
2023-05-05T14:11:37.260Z,28.10
2023-05-05T14:14:05.862Z,28.00
2023-05-05T14:16:34.620Z,28.10
2023-05-05T14:19:02.901Z,28.00
2023-05-05T14:21:31.890Z,28.00
2023-05-05T14:24:00.183Z,27.90
2023-05-05T14:26:29.781Z,27.90
2023-05-05T14:28:57.869Z,27.80
2023-05-05T14:31:25.986Z,27.80
2023-05-05T14:33:54.873Z,27.70
2023-05-05T14:36:23.926Z,27.70
2023-05-05T14:38:53.129Z,27.70
2023-05-05T14:41:21.335Z,27.60
2023-05-05T14:43:51.356Z,27.60
2023-05-05T14:46:19.588Z,27.50
2023-05-05T14:48:50.105Z,27.50
2023-05-05T14:51:33.363Z,27.40
2023-05-05T14:54:01.837Z,27.40
2023-05-05T14:56:30.182Z,27.30
2023-05-05T14:58:59.770Z,27.30
2023-05-05T15:01:30.710Z,27.20
2023-05-05T15:03:59.366Z,27.20
2023-05-05T15:06:28.234Z,27.20
2023-05-05T15:08:59.186Z,27.10
2023-05-05T15:11:27.442Z,27.10
2023-05-05T15:13:55.786Z,27.00
2023-05-05T15:16:25.501Z,27.00
2023-05-05T15:18:53.742Z,27.00
2023-05-05T15:21:21.824Z,27.00
2023-05-05T15:23:53.087Z,27.00
2023-05-05T15:26:24.316Z,27.00
2023-05-05T15:28:52.985Z,26.90
2023-05-05T15:31:21.537Z,26.90
2023-05-05T15:33:51.795Z,26.90
2023-05-05T15:36:22.687Z,26.90
2023-05-05T15:38:51.580Z,26.90
2023-05-05T15:41:19.820Z,26.90
2023-05-05T15:43:48.361Z,26.80
2023-05-05T15:46:16.642Z,26.80
2023-05-05T15:48:47.704Z,26.80
2023-05-05T15:51:18.687Z,26.80
2023-05-05T15:53:47.496Z,26.80
2023-05-05T15:56:45.695Z,26.70
2023-05-05T15:59:13.797Z,26.70
2023-05-05T16:01:41.849Z,26.70
2023-05-05T16:04:09.866Z,26.60
2023-05-05T16:06:39.895Z,26.60
2023-05-05T16:09:08.103Z,26.60
2023-05-05T16:11:37.458Z,26.60
2023-05-05T16:14:06.146Z,26.50
2023-05-05T16:16:34.203Z,26.50
2023-05-05T16:19:02.921Z,26.50
2023-05-05T16:21:31.080Z,26.50
2023-05-05T16:24:00.701Z,26.50
2023-05-05T16:26:28.755Z,26.50
2023-05-05T16:28:57.344Z,26.50
2023-05-05T16:31:25.410Z,26.50
2023-05-05T16:33:53.555Z,26.40
2023-05-05T16:36:22.059Z,26.40
2023-05-05T16:38:51.404Z,26.40
2023-05-05T16:41:21.322Z,26.30
2023-05-05T16:43:49.452Z,26.30
2023-05-05T16:46:18.291Z,26.30
2023-05-05T16:48:46.838Z,26.30
2023-05-05T16:51:15.726Z,26.30
2023-05-05T16:53:43.811Z,26.20
2023-05-05T16:56:12.916Z,26.20
2023-05-05T16:58:43.842Z,26.20
2023-05-05T17:01:12.029Z,26.20
2023-05-05T17:03:41.009Z,26.20
2023-05-05T17:06:10.138Z,26.10
2023-05-05T17:08:38.282Z,26.10
2023-05-05T17:11:06.846Z,26.10
2023-05-05T17:13:35.028Z,26.10
2023-05-05T17:16:04.780Z,26.00
2023-05-05T17:18:32.875Z,26.00
2023-05-05T17:21:01.335Z,26.00
2023-05-05T17:23:29.669Z,26.00
2023-05-05T17:25:59.469Z,25.90
2023-05-05T17:28:27.746Z,25.90
2023-05-05T17:30:59.541Z,25.90
2023-05-05T17:33:29.134Z,25.90
2023-05-05T17:35:57.197Z,25.90
2023-05-05T17:38:25.347Z,25.90
2023-05-05T17:40:53.716Z,25.80
2023-05-05T17:43:21.881Z,25.80
2023-05-05T17:45:49.962Z,25.80
2023-05-05T17:48:18.076Z,25.80
2023-05-05T17:50:47.995Z,25.70
2023-05-05T17:53:16.414Z,25.60
2023-05-05T17:55:46.169Z,25.60
2023-05-05T17:58:14.153Z,25.60
2023-05-05T18:00:42.141Z,25.50
2023-05-05T18:03:10.362Z,25.40
2023-05-05T18:05:38.868Z,25.40
2023-05-05T18:08:08.675Z,25.40
2023-05-05T18:10:37.353Z,25.40
2023-05-05T18:13:05.471Z,25.30
2023-05-05T18:15:33.796Z,25.30
2023-05-05T18:18:01.993Z,25.30
2023-05-05T18:20:30.078Z,25.20
2023-05-05T18:22:58.138Z,25.20
2023-05-05T18:25:27.824Z,25.20
2023-05-05T18:27:55.885Z,25.20
2023-05-05T18:30:23.947Z,25.10
2023-05-05T18:32:52.032Z,25.10
2023-05-05T18:35:20.540Z,25.10
2023-05-05T18:37:49.131Z,25.10
2023-05-05T18:40:18.336Z,25.10
2023-05-05T18:42:48.029Z,25.00
2023-05-05T18:45:16.109Z,25.00
2023-05-05T18:47:44.285Z,25.00
2023-05-05T18:50:13.008Z,25.00
2023-05-05T18:52:41.057Z,24.90
2023-05-05T18:55:09.957Z,24.90
2023-05-05T18:57:38.652Z,24.90
2023-05-05T19:00:09.536Z,24.90
2023-05-05T19:02:39.611Z,24.90
2023-05-05T19:05:09.516Z,24.80
2023-05-05T19:07:38.395Z,24.80
2023-05-05T19:10:07.108Z,24.80
2023-05-05T19:12:35.252Z,24.80
2023-05-05T19:15:03.382Z,24.80
2023-05-05T19:17:32.881Z,24.70
2023-05-05T19:20:01.068Z,24.70
2023-05-05T19:22:29.063Z,24.70
2023-05-05T19:24:56.973Z,24.70
2023-05-05T19:27:24.943Z,24.60
2023-05-05T19:29:53.204Z,24.60
2023-05-05T19:32:21.802Z,24.60
2023-05-05T19:34:54.237Z,24.60
2023-05-05T19:37:22.192Z,24.60
2023-05-05T19:39:51.569Z,24.50
2023-05-05T19:42:19.865Z,24.50
2023-05-05T19:44:47.732Z,24.50
2023-05-05T19:47:15.652Z,24.50
2023-05-05T19:49:43.567Z,24.40
2023-05-05T19:52:13.361Z,24.40
2023-05-05T19:54:43.639Z,24.40
2023-05-05T19:57:11.684Z,24.40
2023-05-05T19:59:39.846Z,24.40
2023-05-05T20:02:09.517Z,24.40
2023-05-05T20:04:37.748Z,24.40
2023-05-05T20:07:05.992Z,24.40
2023-05-05T20:09:36.105Z,24.40
2023-05-05T20:12:04.225Z,24.30
2023-05-05T20:14:33.103Z,24.30
2023-05-05T20:17:06.988Z,24.30
2023-05-05T20:19:35.361Z,24.30
2023-05-05T20:22:05.726Z,24.20
2023-05-05T20:24:35.105Z,24.20
2023-05-05T20:27:03.188Z,24.20
2023-05-05T20:29:31.605Z,24.20
2023-05-05T20:31:59.655Z,24.20
2023-05-05T20:34:28.753Z,24.10
2023-05-05T20:36:57.961Z,24.10
2023-05-05T20:39:26.363Z,24.10
2023-05-05T20:41:55.730Z,24.10
2023-05-05T20:44:23.631Z,24.10
2023-05-05T20:46:51.769Z,24.10
2023-05-05T20:49:19.778Z,24.10
2023-05-05T20:51:47.708Z,24.10
2023-05-05T20:54:15.654Z,24.00
2023-05-05T20:56:43.853Z,24.00
2023-05-05T20:59:13.319Z,24.00
2023-05-05T21:01:41.544Z,24.00
2023-05-05T21:04:09.684Z,24.00
2023-05-05T21:06:38.238Z,24.00
2023-05-05T21:09:06.798Z,23.90
2023-05-05T21:11:34.875Z,23.90
2023-05-05T21:14:03.298Z,23.90
2023-05-05T21:16:32.906Z,23.90
2023-05-05T21:19:00.798Z,23.90
2023-05-05T21:21:28.750Z,23.90
2023-05-05T21:23:58.068Z,23.80
2023-05-05T21:26:26.189Z,23.80
2023-05-05T21:28:54.566Z,23.80
2023-05-05T21:31:22.809Z,23.80
2023-05-05T21:33:52.620Z,23.80
2023-05-05T21:36:21.252Z,23.80
2023-05-05T21:38:49.520Z,23.80
2023-05-05T21:41:18.223Z,23.70
2023-05-05T21:43:46.152Z,23.70
2023-05-05T21:46:14.125Z,23.70
2023-05-05T21:48:42.435Z,23.70
2023-05-05T21:51:11.795Z,23.70
2023-05-05T21:53:39.923Z,23.70
2023-05-05T21:56:08.545Z,23.70
2023-05-05T21:58:36.500Z,23.70
2023-05-05T22:01:04.686Z,23.60
2023-05-05T22:03:32.753Z,23.60
2023-05-05T22:06:00.845Z,23.60
2023-05-05T22:08:30.231Z,23.60
2023-05-05T22:10:58.267Z,23.60
2023-05-05T22:13:26.675Z,23.60
2023-05-05T22:15:54.591Z,23.60
2023-05-05T22:18:22.545Z,23.50
2023-05-05T22:20:51.285Z,23.50
2023-05-05T22:23:19.460Z,23.50
2023-05-05T22:25:48.809Z,23.50
2023-05-05T22:28:17.264Z,23.50
2023-05-05T22:30:45.189Z,23.50
2023-05-05T22:33:13.148Z,23.50
2023-05-05T22:35:41.096Z,23.50
2023-05-05T22:38:09.006Z,23.40
2023-05-05T22:40:36.872Z,23.50
2023-05-05T22:43:06.280Z,23.40
2023-05-05T22:45:34.551Z,23.40
2023-05-05T22:48:02.473Z,23.40
2023-05-05T22:50:31.252Z,23.40
2023-05-05T22:52:59.303Z,23.40
2023-05-05T22:55:27.546Z,23.40
2023-05-05T22:57:55.727Z,23.40
2023-05-05T23:00:25.161Z,23.40
2023-05-05T23:02:53.227Z,23.40
2023-05-05T23:05:21.357Z,23.40
2023-05-05T23:07:49.284Z,23.30
2023-05-05T23:10:17.253Z,23.30
2023-05-05T23:12:45.148Z,23.30
2023-05-05T23:15:13.480Z,23.30
2023-05-05T23:17:43.186Z,23.30
2023-05-05T23:20:13.234Z,23.30
2023-05-05T23:22:41.219Z,23.20
2023-05-05T23:25:10.283Z,23.30
2023-05-05T23:27:39.864Z,23.20
2023-05-05T23:30:09.129Z,23.20
2023-05-05T23:32:37.132Z,23.30
2023-05-05T23:35:07.777Z,23.20
2023-05-05T23:37:35.917Z,23.20
2023-05-05T23:40:03.775Z,23.20
2023-05-05T23:42:31.627Z,23.20
2023-05-05T23:44:59.951Z,23.20
2023-05-05T23:47:27.903Z,23.10
2023-05-05T23:49:56.146Z,23.10
2023-05-05T23:52:25.472Z,23.10
2023-05-05T23:54:53.430Z,23.10
2023-05-05T23:57:21.402Z,23.10
2023-05-05T23:59:49.548Z,23.10
